Latest Weather Observations for Nhill Aerodrome

IDV60801

Issued at 3:05 pm EST Friday 18 April 2014 (issued every 30 minutes, with the page automatically refreshed every 10 minutes)

About weather observations | Map of weather stations | Latest weather observations for VIC | Other Formats
Station Details ID: 078015 Name: NHILL AERODROME Lat: -36.31 Lon: 141.65 Height: 138.9 m
Data from the previous 72 hours. | See also: Recent months at Nhill Aerodrome
Date/Time
EST
Temp
°C
App
Temp
°C
Dew
Point
Rel
Hum
%
Delta-T
°C
Wind Press
QNH
hPa
Press
MSL
hPa
Rain
since 9 am
mm
Dir
 
Spd
km/h
Gust
km/h
Spd
kts
Gust
kts
18/03:00pm 19.2 10.8 1.7 31 8.0 SSW 35 44 19 24 1018.8 1018.7 0.0
18/02:30pm 19.9 11.8 3.2 33 7.9 SW 35 44 19 24 1018.6 - 0.0
18/02:00pm 19.9 12.5 4.0 35 7.7 SSW 32 44 17 24 1018.6 - 0.0
18/01:30pm 19.1 11.3 2.9 34 7.6 SW 33 43 18 23 1018.6 - 0.0
18/01:00pm 18.3 10.9 3.8 38 6.9 SSW 32 43 17 23 1018.9 - 0.0
18/12:30pm 18.7 11.9 6.9 46 6.0 SSW 32 41 17 22 1019.0 - 0.0
18/12:00pm 18.2 11.6 7.6 50 5.4 SSW 32 46 17 25 1019.4 1019.3 0.0
18/11:30am 18.0 11.7 7.4 50 5.4 SSW 30 46 16 25 1019.3 - 0.0
18/11:00am 17.3 10.9 9.5 60 4.1 SSW 33 44 18 24 1019.3 - 0.0
18/10:30am 16.4 11.1 11.3 72 2.8 SW 30 39 16 21 1019.2 - 0.0
18/10:00am 15.8 10.0 11.4 75 2.4 SSW 33 39 18 21 1019.0 - 0.0
18/09:30am 15.4 10.9 12.5 83 1.6 WSW 28 33 15 18 1018.7 - 0.0
18/09:00am 15.9 10.6 12.5 80 1.9 WSW 32 37 17 20 1018.4 1018.3 0.0
18/08:30am 15.4 11.9 12.3 82 1.7 W 22 30 12 16 1018.0 - 0.0
18/08:00am 14.4 11.2 11.4 82 1.6 W 19 24 10 13 1018.0 - 0.0
18/07:30am 13.8 10.5 11.0 83 1.5 WNW 19 24 10 13 1017.5 - 0.0
18/07:00am 12.5 10.7 9.5 82 1.5 WNW 9 13 5 7 1017.5 - 0.0
18/06:30am 12.2 9.6 9.2 82 1.5 NNW 13 17 7 9 1017.2 - 0.0
18/06:00am 12.4 9.8 9.2 81 1.6 NNW 13 19 7 10 1017.0 1016.9 0.0
18/05:30am 12.6 10.0 9.2 80 1.7 NNW 13 17 7 9 1017.0 - 0.0
18/05:00am 12.6 10.0 9.2 80 1.7 NNW 13 15 7 8 1017.0 - 0.0
18/04:30am 13.3 10.8 9.7 79 1.9 NNW 13 15 7 8 1017.0 - 0.0
18/04:00am 13.1 11.7 9.7 80 1.8 NW 7 9 4 5 1017.0 - 0.0
18/03:30am 12.9 11.5 9.5 80 1.7 NNW 7 11 4 6 1017.2 - 0.0
18/03:00am 12.9 11.5 9.4 79 1.8 NNW 7 9 4 5 1017.2 1017.1 0.0
18/02:30am 13.0 11.5 9.1 77 2.0 N 7 7 4 4 1017.4 - 0.0
18/02:00am 12.6 11.0 8.7 77 2.0 N 7 9 4 5 1017.5 - 0.0
18/01:30am 11.8 10.1 8.3 79 1.7 N 7 9 4 5 1017.7 - 0.0
18/01:00am 11.8 11.4 8.3 79 1.7 CALM 0 0 0 0 1017.9 - 0.0
18/12:30am 11.7 11.3 8.2 79 1.7 CALM 0 0 0 0 1018.2 - 0.0
18/12:00am 12.1 11.6 8.0 76 2.0 S 0 2 0 1 1018.5 1018.4 0.0
 
Date/Time
EST
Temp
°C
App
Temp
°C
Dew
Point
Rel
Hum
%
Delta-T
°C
Wind Press
QNH
hPa
Press
MSL
hPa
Rain
since 9 am
mm
Dir
 
Spd
km/h
Gust
km/h
Spd
kts
Gust
kts
17/11:30pm 12.3 11.7 7.2 71 2.5 CALM 0 2 0 1 1018.8 - 0.0
17/11:00pm 13.4 11.8 7.8 69 2.8 S 6 7 3 4 1019.1 - 0.0
17/10:30pm 14.0 12.9 8.4 69 2.8 S 4 6 2 3 1019.3 - 0.0
17/10:00pm 13.9 12.2 8.3 69 2.8 S 7 9 4 5 1019.5 - 0.0
17/09:30pm 13.8 11.7 8.2 69 2.8 SSW 9 11 5 6 1019.7 - 0.0
17/09:00pm 14.3 11.8 8.0 66 3.1 SSW 11 13 6 7 1019.6 1019.5 0.0
17/08:30pm 15.9 14.4 8.6 62 3.7 SW 6 7 3 4 1019.5 - 0.0
17/08:00pm 16.6 14.6 8.8 60 4.0 SW 9 13 5 7 1019.5 - 0.0
17/07:30pm 17.2 14.2 9.1 59 4.2 SW 15 22 8 12 1019.4 - 0.0
17/07:00pm 17.6 13.6 9.2 58 4.4 SW 20 28 11 15 1019.2 - 0.0
17/06:37pm 18.5 12.0 9.0 54 5.0 W 33 41 18 22 1018.8 - 0.0
17/06:30pm 18.5 16.0 8.2 51 5.3 WNW 11 13 6 7 1018.6 - 0.0
17/06:00pm 19.1 17.0 8.4 50 5.6 W 9 11 5 6 1018.5 1018.4 0.0
17/05:30pm 21.2 17.5 7.8 42 7.0 W 17 22 9 12 1018.3 - 0.0
17/05:00pm 22.3 17.5 7.3 38 7.8 W 22 30 12 16 1018.2 - 0.0
17/04:30pm 22.4 18.8 8.5 41 7.4 WSW 17 22 9 12 1018.4 - 0.0
17/04:00pm 22.1 18.1 8.2 41 7.3 NW 19 28 10 15 1018.5 - 0.0
17/03:30pm 22.5 19.2 8.2 40 7.6 WNW 15 24 8 13 1018.7 - 0.0
17/03:00pm 21.7 17.5 8.2 42 7.1 W 20 28 11 15 1018.9 1018.8 0.0
17/02:30pm 22.4 18.0 7.4 38 7.8 W 20 30 11 16 1019.1 - 0.0
17/02:00pm 22.4 19.5 8.1 40 7.6 WNW 13 24 7 13 1019.3 - 0.0
17/01:30pm 22.4 19.2 7.0 37 8.0 NW 13 20 7 11 1019.7 - 0.0
17/01:00pm 21.5 18.5 6.2 37 7.8 N 11 19 6 10 1020.0 - 0.0
17/12:30pm 21.4 19.2 8.0 42 7.0 W 9 15 5 8 1020.5 - 0.0
17/12:00pm 21.4 19.2 8.0 42 7.0 W 9 19 5 10 1020.9 1020.9 0.0
17/11:30am 20.3 18.5 8.0 45 6.4 W 7 15 4 8 1021.3 - 0.0
17/11:00am 19.3 18.2 8.3 49 5.7 NW 4 7 2 4 1021.3 - 0.0
17/10:30am 18.7 17.2 8.4 51 5.4 W 6 11 3 6 1021.5 - 0.0
17/10:00am 17.2 15.9 9.9 62 3.9 WNW 7 9 4 5 1021.6 - 0.0
17/09:30am 15.4 16.0 11.8 79 2.0 CALM 0 0 0 0 1021.5 - 0.0
17/09:00am 12.8 13.0 10.7 87 1.1 CALM 0 0 0 0 1021.5 1021.4 0.0
17/08:30am 11.3 11.3 9.7 90 0.8 CALM 0 0 0 0 1021.4 - 0.0
17/08:00am 9.8 9.4 8.4 91 0.7 CALM 0 0 0 0 1021.1 - 0.0
17/07:30am 8.5 7.8 7.1 91 0.7 CALM 0 0 0 0 1020.7 - 0.0
17/07:00am 7.5 6.6 6.0 90 0.7 CALM 0 0 0 0 1020.4 - 0.0
17/06:30am 7.6 6.7 5.9 89 0.8 CALM 0 0 0 0 1020.1 - 0.0
17/06:00am 8.3 7.5 6.6 89 0.8 CALM 0 0 0 0 1019.9 1019.9 0.0
17/05:30am 8.4 7.6 6.7 89 0.8 CALM 0 0 0 0 1019.7 - 0.0
17/05:00am 8.4 7.6 6.7 89 0.8 CALM 0 6 0 3 1019.4 - 0.0
17/04:30am 8.3 6.7 6.4 88 0.9 SSE 4 7 2 4 1019.2 - 0.0
17/04:00am 9.1 8.5 7.2 88 0.9 CALM 0 0 0 0 1019.0 - 0.0
17/03:30am 10.1 9.6 8.0 87 1.0 CALM 0 0 0 0 1019.0 - 0.0
17/03:00am 10.3 8.6 8.2 87 1.0 SSE 7 7 4 4 1019.2 1019.1 0.0
17/02:30am 10.3 8.5 8.1 86 1.1 SSE 7 9 4 5 1019.3 - 0.0
17/02:00am 10.7 9.2 8.3 85 1.2 SSE 6 7 3 4 1019.5 - 0.0
17/01:30am 10.5 8.3 7.9 84 1.3 SSE 9 11 5 6 1019.5 - 0.0
17/01:00am 10.6 8.4 7.7 82 1.4 S 9 11 5 6 1019.5 - 0.0
17/12:30am 10.7 8.3 7.2 79 1.7 SW 9 9 5 5 1019.6 - 0.0
17/12:00am 11.3 8.7 7.6 78 1.8 SSW 11 11 6 6 1019.8 1019.8 0.0
 
Date/Time
EST
Temp
°C
App
Temp
°C
Dew
Point
Rel
Hum
%
Delta-T
°C
Wind Press
QNH
hPa
Press
MSL
hPa
Rain
since 9 am
mm
Dir
 
Spd
km/h
Gust
km/h
Spd
kts
Gust
kts
16/11:30pm 11.8 9.2 7.7 76 2.0 S 11 13 6 7 1019.7 - 0.0
16/11:00pm 12.7 10.8 7.6 71 2.5 S 7 9 4 5 1020.2 - 0.0
16/10:30pm 13.3 11.1 7.7 69 2.8 SSW 9 13 5 7 1020.1 - 0.0
16/10:00pm 14.2 12.3 7.7 65 3.2 SW 7 9 4 5 1019.9 - 0.0
16/09:30pm 15.1 13.3 8.1 63 3.5 SW 7 9 4 5 1019.8 - 0.0
16/09:00pm 15.3 13.2 8.3 63 3.5 SW 9 13 5 7 1019.4 1019.3 0.0
16/08:30pm 16.2 13.7 8.4 60 4.0 W 11 13 6 7 1019.3 - 0.0
16/08:00pm 17.7 15.9 8.0 53 5.0 SSW 7 9 4 5 1019.0 - 0.0
16/07:30pm 18.3 16.3 8.6 53 5.1 SSE 9 11 5 6 1018.6 - 0.0
16/07:00pm 18.9 18.3 7.4 47 5.9 CALM 0 0 0 0 1018.6 - 0.0
16/06:30pm 20.0 17.9 6.7 42 6.7 WSW 7 13 4 7 1018.9 - 0.0
16/06:00pm 20.6 17.4 6.9 41 7.0 WSW 13 15 7 8 1019.0 1018.9 0.0
16/05:30pm 21.3 17.7 6.8 39 7.4 WSW 15 20 8 11 1018.6 - 0.0
16/05:00pm 21.9 17.5 6.6 37 7.8 WSW 19 26 10 14 1018.5 - 0.0
16/04:30pm 21.9 18.6 6.2 36 8.0 W 13 17 7 9 1018.2 - 0.0
16/04:00pm 22.5 19.9 6.3 35 8.3 WSW 9 17 5 9 1018.0 - 0.0
16/03:30pm 22.1 18.2 5.5 34 8.3 W 15 19 8 10 1018.2 - 0.0
16/03:00pm 22.0 18.6 5.8 35 8.2 WNW 13 20 7 11 1018.2 1018.1 0.0
16/02:30pm 22.3 18.7 6.9 37 8.0 W 15 26 8 14 1018.3 - 0.0
16/02:00pm 22.1 19.3 7.1 38 7.8 W 11 26 6 14 1018.6 - 0.0
16/01:30pm 20.8 17.2 6.7 40 7.2 NW 15 24 8 13 1018.8 - 0.0
16/01:00pm 21.8 18.0 7.6 40 7.4 NNW 17 28 9 15 1019.1 - 0.0
16/12:30pm 20.4 16.8 6.7 41 7.0 WNW 15 20 8 11 1019.5 - 0.0
16/12:00pm 20.1 16.8 6.4 41 6.9 NW 13 22 7 12 1020.1 1020.1 0.0
16/11:30am 20.3 17.5 10.1 52 5.5 NNW 15 20 8 11 1020.2 - 0.0
16/11:00am 18.6 16.1 9.7 56 4.7 NNW 13 17 7 9 1020.3 - 0.0
16/10:30am 17.3 15.4 10.4 64 3.7 N 11 17 6 9 1020.6 - 0.0
16/10:00am 15.4 13.2 9.5 68 3.1 N 11 19 6 10 1021.1 - 0.0
16/09:30am 15.0 13.3 10.0 72 2.6 NNE 9 15 5 8 1021.2 - 0.0
16/09:00am 14.1 12.5 10.1 77 2.1 NE 9 15 5 8 1021.4 1021.3 0.0
16/08:30am 12.2 10.0 9.2 82 1.5 ENE 11 15 6 8 1021.3 - 0.0
16/08:00am 11.5 10.0 9.1 85 1.2 ENE 7 9 4 5 1021.4 - 0.0
16/07:30am 10.1 8.2 7.5 84 1.3 ENE 7 9 4 5 1021.1 - 0.0
16/07:00am 10.9 7.7 8.3 84 1.3 ENE 15 20 8 11 1020.7 - 0.0
16/06:30am 11.0 7.0 8.4 84 1.3 ENE 19 22 10 12 1020.2 - 0.0
16/06:00am 10.9 7.7 8.3 84 1.3 ENE 15 19 8 10 1020.2 1020.2 0.0
16/05:30am 10.8 8.3 8.4 85 1.2 E 11 15 6 8 1020.3 - 0.0
16/05:00am 10.4 8.2 7.8 84 1.3 ESE 9 11 5 6 1020.3 - 0.0
16/04:30am 11.0 8.1 8.2 83 1.4 E 13 15 7 8 1020.4 - 0.0
16/04:00am 11.3 7.4 8.5 83 1.4 E 19 24 10 13 1020.3 - 0.0
16/03:30am 10.8 7.5 8.2 84 1.3 ESE 15 17 8 9 1020.5 - 0.0
16/03:00am 10.7 8.6 8.3 85 1.2 ESE 9 11 5 6 1020.6 1020.6 0.0
16/02:30am 10.8 8.3 8.2 84 1.3 ESE 11 13 6 7 1021.1 - 0.0
16/02:00am 10.8 8.3 8.2 84 1.3 ESE 11 13 6 7 1021.2 - 0.0
16/01:30am 10.2 8.4 7.1 81 1.5 SE 6 9 3 5 1021.2 - 0.0
16/01:00am 11.5 9.4 8.2 80 1.6 SE 9 11 5 6 1021.1 - 0.0
16/12:30am 12.0 9.1 8.1 77 1.9 SE 13 15 7 8 1020.9 - 0.0
16/12:00am 12.1 9.1 7.8 75 2.1 SSE 13 15 7 8 1021.1 1021.0 0.0
 
Date/Time
EST
Temp
°C
App
Temp
°C
Dew
Point
Rel
Hum
%
Delta-T
°C
Wind Press
QNH
hPa
Press
MSL
hPa
Rain
since 9 am
mm
Dir
 
Spd
km/h
Gust
km/h
Spd
kts
Gust
kts
15/11:30pm 13.4 10.2 8.3 71 2.6 ESE 15 17 8 9 1021.3 - 0.0
15/11:00pm 13.6 10.0 8.2 70 2.7 ESE 17 19 9 10 1021.5 - 0.0
15/10:30pm 13.2 10.2 7.6 69 2.8 E 13 15 7 8 1021.6 - 0.0
15/10:00pm 14.3 10.6 8.0 66 3.2 E 17 19 9 10 1021.5 - 0.0
15/09:30pm 14.1 11.1 7.9 66 3.1 ESE 13 15 7 8 1021.7 - 0.0
15/09:00pm 14.4 11.9 8.1 66 3.2 E 11 13 6 7 1021.7 1021.6 0.0
15/08:30pm 15.1 13.0 8.3 64 3.4 E 9 11 5 6 1021.9 - 0.0
15/08:00pm 15.1 12.6 8.3 64 3.4 E 11 13 6 7 1021.7 - 0.0
15/07:30pm 15.7 13.5 8.0 60 3.9 E 9 11 5 6 1021.7 - 0.0
15/07:00pm 16.0 13.6 8.5 61 3.8 E 11 11 6 6 1021.6 - 0.0
15/06:30pm 16.9 14.0 8.3 57 4.4 E 13 13 7 7 1021.2 - 0.0
15/06:00pm 18.9 15.6 8.0 49 5.6 E 15 19 8 10 1020.9 1020.9 0.0
15/05:30pm 20.6 17.1 7.2 42 6.9 E 15 19 8 10 1020.6 - 0.0
15/05:00pm 20.4 17.7 5.6 38 7.4 SSE 9 15 5 8 1020.5 - 0.0
15/04:30pm 20.7 17.8 6.3 39 7.3 SSE 11 17 6 9 1020.6 - 0.0
15/04:00pm 21.4 18.3 5.7 36 7.9 SSE 11 20 6 11 1020.6 - 0.0
15/03:30pm 21.4 17.7 6.1 37 7.7 SE 15 22 8 12 1020.7 - 0.0

Other Formats:

Comma delimited format used in spreadsheet applications
http://www.bom.gov.au/fwo/IDV60801/IDV60801.94827.axf

JavaScript Object Notation format (JSON) in row-major order
http://www.bom.gov.au/fwo/IDV60801/IDV60801.94827.json